Terminal Aerodrome Forecast
Issued by NWS

Home | Current Version | Previous Version | Text Only | Print | Product List | Glossary On
Versions: 1 2 3 4 5 6 7 8 9 10 11 12 13 14 15 16 17 18 19 20 21 22
138
FTUS43 KLSX 191403 AAB
TAFUIN
TAF AMD
KUIN 191403Z 1914/2012 19015G24KT P6SM -SHRA VCTS OVC025CB
     FM191700 20016G26KT P6SM -SHRA VCTS OVC020CB
     FM200000 18013G20KT 5SM SHRA VCTS OVC015CB
     FM200600 19013KT P6SM -SHRA OVC008=

USA.gov is the U.S. government's official web portal to all federal, state and local government web resources and services.